AirNav  
 
 467 users online  

6II4 Cornell Airport
Boonville, Indiana, USA

GOING TO BOONVILLE?


FAA INFORMATION EFFECTIVE 25 FEBRUARY 2021

Location

FAA Identifier: 6II4
Lat/Long: 37-58-56.0000N 087-17-56.0000W
37-58.933333N 087-17.933333W
37.9822222,-87.2988889
(estimated)
Elevation: 390 ft. / 119 m (estimated)
Variation: 01W (1995)
From city: 5 miles S of BOONVILLE, IN
Time zone: UTC -6 (UTC -5 during Daylight Saving Time)
Zip code: 47601

Airport Operations

Airport use: Private use. Permission required prior to landing
Activation date: 02/1996
Control tower: no
ARTCC: INDIANAPOLIS CENTER
FSS: TERRE HAUTE FLIGHT SERVICE STATION
Attendance: UNATNDD
Segmented circle: no

Airport Communications

WX ASOS at EVV (11 nm W): 120.2 (812-436-4681)
WX AWOS-3PT at OWB (16 nm SE): 119.025 (270-683-3228)

Nearby radio navigation aids

VOR radial/distance  VOR name  Freq  Var
OWBr340/15.6OWENSBORO VOR/DME108.6004W
PXVr079/22.2POCKET CITY VORTAC113.3003E

Airport Services

Runway Information

Runway 9/27

Dimensions: 3400 x 30 ft. / 1036 x 9 m
Surface: asphalt
RUNWAY 9  RUNWAY 27
Traffic pattern: leftleft
Obstructions: 98 ft. pline, 2300 ft. from runwaynone

Airport Ownership and Management from official FAA records

Ownership: Privately-owned
Owner: CORNELL EXCAVATING, INC.
5022 S YANKEETOWN HWY
BOONVILLE, IN 47601
Phone 812-853-8296
Manager: GUY CORNELL III
5233 BRUMLEY RD.
NEWBURGH, IN 47630
Phone 812-204-4751

Airport Operational Statistics

Aircraft based on the field: 1
Single engine airplanes: 1
    

Additional Remarks

600 FT TOWER 1 MILE NE OF ARPT.
FOR CD CTC EVANSVILLE APCH AT 812-436-4690, WHEN APCH CLSD CTC INDIANAPOLIS ARTCC AT 317-247-2411.

Instrument Procedures

There are no published instrument procedures at 6II4.

Some nearby airports with instrument procedures:

KEVV - Evansville Regional Airport (11 nm W)
KOWB - Owensboro-Daviess County Regional Airport (16 nm SE)
KY8 - Hancock County Airport/Ron Lewis Field (21 nm E)
KEHR - Henderson City-County Airport (21 nm SW)
KHNB - Huntingburg Airport (23 nm NE)
 
Loc | Ops | Rwys | IFR | FBO | Links
Com | Nav | Svcs | Stats | Notes
Area around 6II4 (Cornell Airport)
 
Road maps at: MapQuest Bing Google
 
Aerial photo
No photo
 
Sectional chart

 
Airport distance calculator
Flying to Cornell Airport? Find the distance to fly.

From to 6II4

Sunrise and sunset
Times for 09-Mar-2021
 Local
(UTC-6)
 Zulu
(UTC)
Morning civil twilight05:4411:44
Sunrise06:1012:10
Sunset17:4923:49
Evening civil twilight18:1600:16

Current date and time
Zulu (UTC)  09-Mar-2021 06:35:37
Local (UTC-6)  09-Mar-2021 00:35:37
 
METAR
KI19 
4nm N 
090615Z AUTO 19004KT 10SM CLR 08/M02 A3039 RMK AO2 T00841025
KEVV 
11nm W 
090554Z AUTO 00000KT 10SM CLR 04/01 A3040 RMK AO2 SLP293 T00440006 10139 20044 401940006 56002
KOWB 
17nm S 
090556Z AUTO 11003KT 10SM CLR 07/01 A3040 RMK AO2 SLP296 T00670011 10128 20056 401940017 55002
TAF
KEVV 
11nm W 
090526Z 0906/1006 19004KT P6SM SCT250 FM091500 20010G17KT P6SM SCT250 FM100000 18009KT P6SM FEW050 FEW200
KOWB 
17nm S 
090526Z 0906/1006 19004KT P6SM SCT250 FM091500 20010G17KT P6SM SCT250 FM100000 18009KT P6SM FEW050 FEW200
NOTAMs
Click for the latest NOTAMs
NOTAMs are issued by the DoD/FAA and will open in a separate window not controlled by AirNav.

 

 
 

Would you like to see your business listed on this page?

 If your business provides an interesting product or service to pilots, flight crews, aircraft, or users of the Cornell Airport, you should consider listing it here.  To start the listing process, click on the button below
 
Add a business
 

Other Pages about Cornell Airport

Update a link
 
Copyright © AirNav, LLC. All rights reserved. Privacy Policy  Contact